KLM61T EHAM-EGKK
Flight info
| Callsign | KLM61T |
|---|---|
| Flight time | 1h 0m |
| Altitude | 24000 |
| Route | IDRID L980 ABNED Z344 AMRIV Q63 ARREK Y4 TEBRA |
| Aircraft | B77W/H-SDE1E2E3FGHIJ2J3J4J5M1RWXY/LB1D1 |
Departure
| Time | 2026-05-07 14:05 |
|---|---|
| Airport | Amsterdam Airport Schiphol (EHAM) |
Arrival
| Time | 2026-05-07 15:05 |
|---|---|
| Airport | London Gatwick Airport (EGKK) |
| Time | Latitude | Longitude | Altitude | Speed | Heading |
|---|---|---|---|---|---|
| 2026-05-07 13:19 | 52.31216 | 4.77271 | 2 ft | 0 kts | 184° |
| 2026-05-07 13:55 | 52.31218 | 4.77271 | 2 ft | 2 kts | 184° |
| 2026-05-07 13:56 | 52.31243 | 4.77274 | 2 ft | 4 kts | 184° |
| 2026-05-07 13:56 | 52.31267 | 4.77278 | 2 ft | 4 kts | 195° |
| 2026-05-07 13:56 | 52.31286 | 4.77291 | 4 ft | 4 kts | 229° |
| 2026-05-07 13:56 | 52.31294 | 4.77316 | 5 ft | 4 kts | 270° |
| 2026-05-07 13:57 | 52.31292 | 4.77359 | 4 ft | 4 kts | 276° |
| 2026-05-07 13:57 | 52.31291 | 4.77379 | 4 ft | 1 kts | 273° |
| 2026-05-07 13:57 | 52.31291 | 4.77381 | 4 ft | 0 kts | 273° |
| 2026-05-07 14:01 | 52.31294 | 4.77295 | 2 ft | 8 kts | 274° |
| 2026-05-07 14:01 | 52.31359 | 4.77177 | 2 ft | 9 kts | 358° |
| 2026-05-07 14:01 | 52.31441 | 4.77190 | 2 ft | 14 kts | 5° |
| 2026-05-07 14:01 | 52.31543 | 4.77164 | 2 ft | 16 kts | 311° |
| 2026-05-07 14:02 | 52.31563 | 4.76960 | 2 ft | 21 kts | 267° |
| 2026-05-07 14:02 | 52.31553 | 4.76704 | 2 ft | 25 kts | 266° |
| 2026-05-07 14:02 | 52.31544 | 4.76404 | 3 ft | 28 kts | 268° |
| 2026-05-07 14:02 | 52.31531 | 4.76066 | 3 ft | 32 kts | 266° |
| 2026-05-07 14:03 | 52.31521 | 4.75710 | 2 ft | 31 kts | 266° |
| 2026-05-07 14:03 | 52.31507 | 4.75342 | 2 ft | 34 kts | 267° |
| 2026-05-07 14:03 | 52.31496 | 4.75017 | 2 ft | 28 kts | 266° |
| 2026-05-07 14:03 | 52.31488 | 4.74786 | 2 ft | 19 kts | 269° |
| 2026-05-07 14:04 | 52.31564 | 4.74664 | 3 ft | 19 kts | 353° |
| 2026-05-07 14:04 | 52.31666 | 4.74773 | 3 ft | 21 kts | 77° |
| 2026-05-07 14:04 | 52.31673 | 4.74885 | 1 ft | 0 kts | 85° |
| 2026-05-07 14:04 | 52.31674 | 4.74893 | 1 ft | 5 kts | 85° |
| 2026-05-07 14:05 | 52.31696 | 4.75526 | 0 ft | 118 kts | 86° |
| 2026-05-07 14:05 | 52.31766 | 4.77554 | 84 ft | 231 kts | 86° |
| 2026-05-07 14:05 | 52.31864 | 4.80283 | 1068 ft | 231 kts | 85° |
| 2026-05-07 14:05 | 52.31926 | 4.82720 | 2403 ft | 211 kts | 81° |
| 2026-05-07 14:06 | 52.32517 | 4.84894 | 3143 ft | 215 kts | 39° |
| 2026-05-07 14:06 | 52.33865 | 4.85920 | 3908 ft | 220 kts | 12° |
| 2026-05-07 14:06 | 52.35429 | 4.86036 | 4655 ft | 230 kts | 348° |
| 2026-05-07 14:06 | 52.36820 | 4.84769 | 5418 ft | 236 kts | 309° |
| 2026-05-07 14:07 | 52.37654 | 4.82432 | 6052 ft | 246 kts | 295° |
| 2026-05-07 14:07 | 52.38450 | 4.79745 | 6090 ft | 280 kts | 296° |
| 2026-05-07 14:07 | 52.39636 | 4.77000 | 6091 ft | 316 kts | 317° |
| 2026-05-07 14:07 | 52.41508 | 4.74778 | 6094 ft | 347 kts | 327° |
| 2026-05-07 14:08 | 52.43613 | 4.72550 | 6106 ft | 370 kts | 326° |
| 2026-05-07 14:08 | 52.45591 | 4.70095 | 6289 ft | 339 kts | 318° |
| 2026-05-07 14:08 | 52.46955 | 4.67337 | 6696 ft | 305 kts | 291° |
| 2026-05-07 14:08 | 52.47214 | 4.63943 | 7251 ft | 303 kts | 259° |
| 2026-05-07 14:09 | 52.46430 | 4.60779 | 7826 ft | 301 kts | 239° |
| 2026-05-07 14:09 | 52.45428 | 4.57733 | 8436 ft | 308 kts | 248° |
| 2026-05-07 14:09 | 52.45112 | 4.54230 | 8984 ft | 313 kts | 274° |
| 2026-05-07 14:09 | 52.45420 | 4.50717 | 9607 ft | 312 kts | 278° |
| 2026-05-07 14:10 | 52.45549 | 4.47158 | 10163 ft | 317 kts | 261° |
| 2026-05-07 14:10 | 52.44749 | 4.43818 | 10708 ft | 317 kts | 238° |
| 2026-05-07 14:10 | 52.43505 | 4.40838 | 11275 ft | 316 kts | 234° |
| 2026-05-07 14:10 | 52.42256 | 4.37915 | 11825 ft | 319 kts | 236° |
| 2026-05-07 14:11 | 52.41088 | 4.34796 | 12395 ft | 323 kts | 241° |
| 2026-05-07 14:11 | 52.40035 | 4.31515 | 12989 ft | 327 kts | 243° |
| 2026-05-07 14:11 | 52.39018 | 4.28154 | 13583 ft | 332 kts | 244° |
| 2026-05-07 14:11 | 52.37993 | 4.24748 | 14154 ft | 335 kts | 244° |
| 2026-05-07 14:12 | 52.36950 | 4.21320 | 14692 ft | 338 kts | 243° |
| 2026-05-07 14:12 | 52.35884 | 4.17870 | 15233 ft | 341 kts | 243° |
| 2026-05-07 14:12 | 52.34805 | 4.14420 | 15787 ft | 342 kts | 243° |
| 2026-05-07 14:12 | 52.33709 | 4.10951 | 16355 ft | 344 kts | 243° |
| 2026-05-07 14:13 | 52.32618 | 4.07517 | 16924 ft | 345 kts | 243° |
| 2026-05-07 14:13 | 52.31506 | 4.04035 | 17508 ft | 347 kts | 242° |
| 2026-05-07 14:13 | 52.30383 | 4.00530 | 18110 ft | 350 kts | 242° |
| 2026-05-07 14:13 | 52.29247 | 3.96990 | 18680 ft | 353 kts | 242° |
| 2026-05-07 14:14 | 52.28101 | 3.93429 | 19196 ft | 356 kts | 242° |
| 2026-05-07 14:14 | 52.26944 | 3.89837 | 19758 ft | 358 kts | 242° |
| 2026-05-07 14:14 | 52.25779 | 3.86226 | 20307 ft | 361 kts | 242° |
| 2026-05-07 14:14 | 52.24606 | 3.82593 | 20857 ft | 363 kts | 242° |
| 2026-05-07 14:15 | 52.23426 | 3.78944 | 21451 ft | 365 kts | 242° |
| 2026-05-07 14:15 | 52.22244 | 3.75293 | 22023 ft | 370 kts | 242° |
| 2026-05-07 14:15 | 52.21036 | 3.71569 | 22632 ft | 374 kts | 242° |
| 2026-05-07 14:15 | 52.19806 | 3.67783 | 23259 ft | 381 kts | 242° |
| 2026-05-07 14:16 | 52.18561 | 3.63959 | 23837 ft | 382 kts | 242° |
| 2026-05-07 14:16 | 52.17325 | 3.60167 | 24121 ft | 381 kts | 242° |
| 2026-05-07 14:16 | 52.16070 | 3.56322 | 24090 ft | 384 kts | 242° |
| 2026-05-07 14:16 | 52.14815 | 3.52481 | 24090 ft | 384 kts | 242° |
| 2026-05-07 14:17 | 52.13561 | 3.48653 | 24093 ft | 383 kts | 242° |
| 2026-05-07 14:17 | 52.12324 | 3.44882 | 24096 ft | 383 kts | 242° |
| 2026-05-07 14:17 | 52.11054 | 3.41015 | 24093 ft | 382 kts | 242° |
| 2026-05-07 14:17 | 52.09818 | 3.37259 | 24096 ft | 382 kts | 242° |
| 2026-05-07 14:18 | 52.08563 | 3.33447 | 24094 ft | 382 kts | 242° |
| 2026-05-07 14:18 | 52.07306 | 3.29639 | 24094 ft | 382 kts | 242° |
| 2026-05-07 14:18 | 52.06054 | 3.25850 | 24093 ft | 382 kts | 242° |
| 2026-05-07 14:18 | 52.04795 | 3.22046 | 24092 ft | 382 kts | 242° |
| 2026-05-07 14:19 | 52.03534 | 3.18240 | 24092 ft | 382 kts | 242° |
| 2026-05-07 14:19 | 52.02273 | 3.14444 | 24092 ft | 382 kts | 242° |
| 2026-05-07 14:19 | 52.01013 | 3.10653 | 24093 ft | 382 kts | 242° |
| 2026-05-07 14:19 | 51.99746 | 3.06850 | 24093 ft | 382 kts | 242° |
| 2026-05-07 14:20 | 51.98484 | 3.03064 | 24092 ft | 382 kts | 242° |
| 2026-05-07 14:20 | 51.97232 | 2.99317 | 24094 ft | 383 kts | 242° |
| 2026-05-07 14:20 | 51.95964 | 2.95524 | 24092 ft | 383 kts | 242° |
| 2026-05-07 14:20 | 51.94695 | 2.91737 | 24090 ft | 383 kts | 241° |
| 2026-05-07 14:21 | 51.93422 | 2.87944 | 24090 ft | 383 kts | 241° |
| 2026-05-07 14:21 | 51.92150 | 2.84160 | 24090 ft | 383 kts | 241° |
| 2026-05-07 14:21 | 51.90875 | 2.80370 | 24091 ft | 383 kts | 241° |
| 2026-05-07 14:21 | 51.89600 | 2.76587 | 24090 ft | 383 kts | 241° |
| 2026-05-07 14:22 | 51.88339 | 2.72853 | 24089 ft | 383 kts | 241° |
| 2026-05-07 14:22 | 51.87079 | 2.69124 | 24076 ft | 374 kts | 241° |
| 2026-05-07 14:22 | 51.85821 | 2.65408 | 24094 ft | 380 kts | 241° |
| 2026-05-07 14:22 | 51.84537 | 2.61623 | 24092 ft | 387 kts | 241° |
| 2026-05-07 14:23 | 51.83243 | 2.57813 | 24085 ft | 385 kts | 241° |
| 2026-05-07 14:23 | 51.81959 | 2.54041 | 24082 ft | 383 kts | 241° |
| 2026-05-07 14:23 | 51.80670 | 2.50256 | 23864 ft | 385 kts | 241° |
| 2026-05-07 14:23 | 51.79381 | 2.46478 | 23466 ft | 384 kts | 241° |
| 2026-05-07 14:24 | 51.78108 | 2.42753 | 23054 ft | 381 kts | 241° |
| 2026-05-07 14:24 | 51.76820 | 2.38987 | 22634 ft | 377 kts | 241° |
| 2026-05-07 14:24 | 51.75575 | 2.35353 | 22225 ft | 373 kts | 241° |
| 2026-05-07 14:24 | 51.74327 | 2.31716 | 21826 ft | 369 kts | 241° |
| 2026-05-07 14:25 | 51.73086 | 2.28103 | 21418 ft | 365 kts | 241° |
| 2026-05-07 14:25 | 51.71863 | 2.24548 | 21030 ft | 362 kts | 241° |
| 2026-05-07 14:25 | 51.70645 | 2.21014 | 20642 ft | 359 kts | 241° |
| 2026-05-07 14:25 | 51.69431 | 2.17497 | 20259 ft | 357 kts | 241° |
| 2026-05-07 14:26 | 51.68232 | 2.14026 | 20086 ft | 351 kts | 241° |
| 2026-05-07 14:26 | 51.67047 | 2.10602 | 20043 ft | 351 kts | 241° |
| 2026-05-07 14:26 | 51.65874 | 2.07213 | 19631 ft | 350 kts | 240° |
| 2026-05-07 14:26 | 51.64686 | 2.03789 | 19161 ft | 350 kts | 240° |
| 2026-05-07 14:27 | 51.63501 | 2.00380 | 18715 ft | 349 kts | 240° |
| 2026-05-07 14:27 | 51.62401 | 1.96945 | 18211 ft | 340 kts | 249° |
| 2026-05-07 14:27 | 51.61840 | 1.93350 | 17645 ft | 325 kts | 264° |
| 2026-05-07 14:27 | 51.61742 | 1.89765 | 17166 ft | 317 kts | 268° |
| 2026-05-07 14:28 | 51.61643 | 1.86263 | 16658 ft | 310 kts | 264° |
| 2026-05-07 14:28 | 51.61099 | 1.82970 | 16106 ft | 306 kts | 237° |
| 2026-05-07 14:28 | 51.59592 | 1.80626 | 15650 ft | 301 kts | 212° |
| 2026-05-07 14:28 | 51.57826 | 1.78925 | 15272 ft | 290 kts | 214° |
| 2026-05-07 14:29 | 51.56481 | 1.76666 | 14786 ft | 285 kts | 240° |
| 2026-05-07 14:29 | 51.55587 | 1.73877 | 14371 ft | 278 kts | 241° |
| 2026-05-07 14:29 | 51.54529 | 1.71316 | 14138 ft | 277 kts | 231° |
| 2026-05-07 14:29 | 51.53252 | 1.68961 | 14101 ft | 281 kts | 227° |
| 2026-05-07 14:30 | 51.51939 | 1.66648 | 14090 ft | 280 kts | 227° |
| 2026-05-07 14:30 | 51.50639 | 1.64337 | 14081 ft | 278 kts | 227° |
| 2026-05-07 14:30 | 51.49356 | 1.62027 | 14080 ft | 277 kts | 229° |
| 2026-05-07 14:30 | 51.48278 | 1.59530 | 14068 ft | 272 kts | 244° |
| 2026-05-07 14:31 | 51.47614 | 1.56654 | 14090 ft | 278 kts | 252° |
| 2026-05-07 14:31 | 51.47051 | 1.53710 | 13972 ft | 282 kts | 252° |
| 2026-05-07 14:31 | 51.46450 | 1.50700 | 13493 ft | 285 kts | 251° |
| 2026-05-07 14:31 | 51.45801 | 1.47707 | 12983 ft | 282 kts | 249° |
| 2026-05-07 14:32 | 51.45137 | 1.44792 | 12490 ft | 276 kts | 249° |
| 2026-05-07 14:32 | 51.44476 | 1.41940 | 11981 ft | 270 kts | 249° |
| 2026-05-07 14:32 | 51.43823 | 1.39139 | 11487 ft | 265 kts | 247° |
| 2026-05-07 14:32 | 51.42804 | 1.36750 | 10946 ft | 263 kts | 217° |
| 2026-05-07 14:33 | 51.41266 | 1.35310 | 10555 ft | 256 kts | 207° |
| 2026-05-07 14:33 | 51.39747 | 1.33881 | 10178 ft | 248 kts | 214° |
| 2026-05-07 14:33 | 51.38416 | 1.32244 | 10082 ft | 235 kts | 218° |
| 2026-05-07 14:33 | 51.37190 | 1.30620 | 10072 ft | 227 kts | 219° |
| 2026-05-07 14:34 | 51.35976 | 1.29029 | 10093 ft | 225 kts | 218° |
| 2026-05-07 14:34 | 51.34747 | 1.27459 | 10087 ft | 226 kts | 218° |
| 2026-05-07 14:34 | 51.33508 | 1.25910 | 9998 ft | 229 kts | 217° |
| 2026-05-07 14:34 | 51.32229 | 1.24340 | 9645 ft | 233 kts | 217° |
| 2026-05-07 14:35 | 51.30938 | 1.22774 | 9214 ft | 232 kts | 217° |
| 2026-05-07 14:35 | 51.29653 | 1.21230 | 8782 ft | 230 kts | 216° |
| 2026-05-07 14:35 | 51.28396 | 1.19729 | 8375 ft | 227 kts | 216° |
| 2026-05-07 14:35 | 51.27139 | 1.18236 | 8083 ft | 220 kts | 216° |
| 2026-05-07 14:36 | 51.25913 | 1.16784 | 8087 ft | 221 kts | 216° |
| 2026-05-07 14:36 | 51.24676 | 1.15323 | 8079 ft | 222 kts | 216° |
| 2026-05-07 14:36 | 51.23434 | 1.13860 | 8072 ft | 221 kts | 216° |
| 2026-05-07 14:36 | 51.22209 | 1.12418 | 8070 ft | 217 kts | 216° |
| 2026-05-07 14:37 | 51.21000 | 1.10998 | 8069 ft | 216 kts | 216° |
| 2026-05-07 14:37 | 51.18584 | 1.08164 | 8072 ft | 217 kts | 216° |
| 2026-05-07 14:37 | 51.17366 | 1.06737 | 8077 ft | 218 kts | 216° |
| 2026-05-07 14:38 | 51.16129 | 1.05289 | 8081 ft | 218 kts | 216° |
| 2026-05-07 14:38 | 51.14922 | 1.03876 | 8076 ft | 219 kts | 216° |
| 2026-05-07 14:38 | 51.13691 | 1.02437 | 8076 ft | 219 kts | 216° |
| 2026-05-07 14:38 | 51.12464 | 1.01004 | 8080 ft | 219 kts | 216° |
| 2026-05-07 14:39 | 51.11234 | 0.99566 | 8072 ft | 219 kts | 216° |
| 2026-05-07 14:39 | 51.10004 | 0.98129 | 8074 ft | 219 kts | 216° |
| 2026-05-07 14:39 | 51.08781 | 0.96703 | 8074 ft | 218 kts | 216° |
| 2026-05-07 14:39 | 51.07558 | 0.95279 | 8074 ft | 218 kts | 216° |
| 2026-05-07 14:40 | 51.06336 | 0.93856 | 8074 ft | 217 kts | 217° |
| 2026-05-07 14:40 | 51.05353 | 0.92120 | 8017 ft | 218 kts | 242° |
| 2026-05-07 14:40 | 51.04780 | 0.89872 | 7862 ft | 220 kts | 248° |
| 2026-05-07 14:40 | 51.04209 | 0.87642 | 7461 ft | 216 kts | 245° |
| 2026-05-07 14:41 | 51.03566 | 0.85511 | 7092 ft | 213 kts | 243° |
| 2026-05-07 14:41 | 51.02899 | 0.83415 | 6714 ft | 212 kts | 243° |
| 2026-05-07 14:41 | 51.02239 | 0.81317 | 6329 ft | 211 kts | 243° |
| 2026-05-07 14:41 | 51.01601 | 0.79254 | 6078 ft | 203 kts | 244° |
| 2026-05-07 14:42 | 51.01008 | 0.77304 | 6070 ft | 196 kts | 244° |
| 2026-05-07 14:42 | 51.00415 | 0.75342 | 6082 ft | 197 kts | 244° |
| 2026-05-07 14:42 | 50.99837 | 0.73422 | 6066 ft | 194 kts | 244° |
| 2026-05-07 14:42 | 50.99258 | 0.71496 | 6066 ft | 193 kts | 244° |
| 2026-05-07 14:43 | 50.98678 | 0.69569 | 6078 ft | 194 kts | 244° |
| 2026-05-07 14:43 | 50.98098 | 0.67637 | 6079 ft | 194 kts | 244° |
| 2026-05-07 14:43 | 50.97516 | 0.65704 | 6075 ft | 195 kts | 244° |
| 2026-05-07 14:43 | 50.96933 | 0.63767 | 6068 ft | 195 kts | 244° |
| 2026-05-07 14:44 | 50.96347 | 0.61824 | 6071 ft | 195 kts | 244° |
| 2026-05-07 14:44 | 50.95764 | 0.59888 | 6076 ft | 195 kts | 244° |
| 2026-05-07 14:44 | 50.95179 | 0.57947 | 6070 ft | 195 kts | 244° |
| 2026-05-07 14:44 | 50.94601 | 0.56032 | 6071 ft | 195 kts | 244° |
| 2026-05-07 14:45 | 50.94018 | 0.54099 | 5982 ft | 195 kts | 244° |
| 2026-05-07 14:45 | 50.93429 | 0.52153 | 5983 ft | 195 kts | 244° |
| 2026-05-07 14:45 | 50.92844 | 0.50222 | 5985 ft | 195 kts | 244° |
| 2026-05-07 14:45 | 50.92256 | 0.48280 | 5985 ft | 195 kts | 244° |
| 2026-05-07 14:46 | 50.91668 | 0.46343 | 5986 ft | 195 kts | 244° |
| 2026-05-07 14:46 | 50.91204 | 0.44351 | 5962 ft | 192 kts | 263° |
| 2026-05-07 14:46 | 50.91463 | 0.42322 | 6016 ft | 192 kts | 292° |
| 2026-05-07 14:46 | 50.91954 | 0.40311 | 5995 ft | 198 kts | 288° |
| 2026-05-07 14:47 | 50.92351 | 0.38251 | 5998 ft | 198 kts | 286° |
| 2026-05-07 14:47 | 50.92735 | 0.36161 | 5990 ft | 197 kts | 286° |
| 2026-05-07 14:47 | 50.93116 | 0.34073 | 5981 ft | 196 kts | 286° |
| 2026-05-07 14:47 | 50.93494 | 0.31999 | 5978 ft | 195 kts | 286° |
| 2026-05-07 14:48 | 50.93871 | 0.29936 | 5922 ft | 196 kts | 286° |
| 2026-05-07 14:48 | 50.94255 | 0.27831 | 5602 ft | 201 kts | 286° |
| 2026-05-07 14:48 | 50.94709 | 0.25738 | 5209 ft | 200 kts | 297° |
| 2026-05-07 14:48 | 50.95501 | 0.23951 | 4830 ft | 197 kts | 309° |
| 2026-05-07 14:49 | 50.96381 | 0.22289 | 4434 ft | 197 kts | 310° |
| 2026-05-07 14:49 | 50.97255 | 0.20614 | 4055 ft | 196 kts | 309° |
| 2026-05-07 14:49 | 50.98066 | 0.19013 | 3976 ft | 179 kts | 309° |
| 2026-05-07 14:49 | 50.98818 | 0.17505 | 3952 ft | 168 kts | 308° |
| 2026-05-07 14:50 | 50.99525 | 0.16080 | 3972 ft | 168 kts | 308° |
| 2026-05-07 14:50 | 51.00253 | 0.14607 | 3984 ft | 171 kts | 308° |
| 2026-05-07 14:50 | 51.00988 | 0.13117 | 4071 ft | 171 kts | 308° |
| 2026-05-07 14:50 | 51.01622 | 0.11562 | 4036 ft | 166 kts | 286° |
| 2026-05-07 14:51 | 51.01642 | 0.09760 | 4103 ft | 169 kts | 264° |
| 2026-05-07 14:51 | 51.01623 | 0.07861 | 4071 ft | 174 kts | 276° |
| 2026-05-07 14:51 | 51.01770 | 0.05965 | 4069 ft | 172 kts | 278° |
| 2026-05-07 14:51 | 51.01922 | 0.04095 | 4061 ft | 170 kts | 277° |
| 2026-05-07 14:52 | 51.02063 | 0.02245 | 4057 ft | 168 kts | 277° |
| 2026-05-07 14:52 | 51.02191 | 0.00431 | 4040 ft | 170 kts | 276° |
| 2026-05-07 14:52 | 51.02318 | -0.01474 | 3832 ft | 176 kts | 276° |
| 2026-05-07 14:52 | 51.02441 | -0.03425 | 3460 ft | 179 kts | 275° |
| 2026-05-07 14:53 | 51.02560 | -0.05391 | 3099 ft | 178 kts | 275° |
| 2026-05-07 14:53 | 51.02670 | -0.07271 | 3077 ft | 170 kts | 274° |
| 2026-05-07 14:53 | 51.02775 | -0.09169 | 3084 ft | 172 kts | 274° |
| 2026-05-07 14:53 | 51.02875 | -0.11006 | 3095 ft | 164 kts | 274° |
| 2026-05-07 14:54 | 51.02972 | -0.12819 | 3080 ft | 166 kts | 274° |
| 2026-05-07 14:54 | 51.03068 | -0.14653 | 3090 ft | 167 kts | 274° |
| 2026-05-07 14:54 | 51.03162 | -0.16505 | 3086 ft | 169 kts | 274° |
| 2026-05-07 14:54 | 51.03258 | -0.18367 | 3064 ft | 172 kts | 274° |
| 2026-05-07 14:55 | 51.03355 | -0.20265 | 3051 ft | 168 kts | 274° |
| 2026-05-07 14:55 | 51.03447 | -0.22083 | 3067 ft | 167 kts | 274° |
| 2026-05-07 14:55 | 51.03539 | -0.23917 | 3059 ft | 166 kts | 274° |
| 2026-05-07 14:55 | 51.03631 | -0.25737 | 3080 ft | 167 kts | 274° |
| 2026-05-07 14:56 | 51.03723 | -0.27585 | 3080 ft | 168 kts | 274° |
| 2026-05-07 14:56 | 51.03815 | -0.29449 | 3078 ft | 169 kts | 274° |
| 2026-05-07 14:56 | 51.03905 | -0.31249 | 3070 ft | 169 kts | 274° |
| 2026-05-07 14:56 | 51.03996 | -0.33111 | 3070 ft | 169 kts | 274° |
| 2026-05-07 14:57 | 51.04085 | -0.34939 | 3072 ft | 168 kts | 274° |
| 2026-05-07 14:57 | 51.04174 | -0.36783 | 3079 ft | 168 kts | 274° |
| 2026-05-07 14:57 | 51.04264 | -0.38637 | 3070 ft | 168 kts | 274° |
| 2026-05-07 14:57 | 51.04352 | -0.40489 | 3063 ft | 169 kts | 274° |
| 2026-05-07 14:58 | 51.04442 | -0.42339 | 3066 ft | 167 kts | 274° |
| 2026-05-07 14:58 | 51.04531 | -0.44182 | 3073 ft | 168 kts | 274° |
| 2026-05-07 14:58 | 51.04622 | -0.46049 | 3066 ft | 170 kts | 273° |
| 2026-05-07 14:58 | 51.04709 | -0.47911 | 3073 ft | 168 kts | 274° |
| 2026-05-07 14:59 | 51.04820 | -0.49752 | 3044 ft | 166 kts | 279° |
| 2026-05-07 14:59 | 51.05207 | -0.51438 | 3034 ft | 163 kts | 304° |
| 2026-05-07 14:59 | 51.06079 | -0.52648 | 3075 ft | 172 kts | 332° |
| 2026-05-07 14:59 | 51.07208 | -0.53210 | 3078 ft | 173 kts | 353° |
| 2026-05-07 15:00 | 51.08392 | -0.53111 | 3034 ft | 166 kts | 15° |
| 2026-05-07 15:00 | 51.09418 | -0.52308 | 3075 ft | 168 kts | 42° |
| 2026-05-07 15:00 | 51.09977 | -0.50730 | 3085 ft | 167 kts | 73° |
| 2026-05-07 15:00 | 51.10330 | -0.48987 | 3076 ft | 163 kts | 72° |
| 2026-05-07 15:01 | 51.10689 | -0.47329 | 3048 ft | 154 kts | 71° |
| 2026-05-07 15:01 | 51.11035 | -0.45729 | 3062 ft | 152 kts | 74° |
| 2026-05-07 15:01 | 51.11326 | -0.44114 | 3068 ft | 152 kts | 77° |
| 2026-05-07 15:01 | 51.11576 | -0.42458 | 3042 ft | 156 kts | 78° |
| 2026-05-07 15:02 | 51.11817 | -0.40762 | 2816 ft | 155 kts | 79° |
| 2026-05-07 15:02 | 51.12041 | -0.39106 | 2624 ft | 153 kts | 80° |
| 2026-05-07 15:02 | 51.12264 | -0.37474 | 2407 ft | 153 kts | 81° |
| 2026-05-07 15:02 | 51.12492 | -0.35823 | 2215 ft | 154 kts | 79° |
| 2026-05-07 15:03 | 51.12720 | -0.34219 | 2019 ft | 155 kts | 79° |
| 2026-05-07 15:03 | 51.12971 | -0.32454 | 1778 ft | 164 kts | 81° |
| 2026-05-07 15:03 | 51.13213 | -0.30730 | 1562 ft | 157 kts | 79° |
| 2026-05-07 15:03 | 51.13428 | -0.29039 | 1307 ft | 155 kts | 81° |
| 2026-05-07 15:04 | 51.13659 | -0.27398 | 1124 ft | 151 kts | 79° |
| 2026-05-07 15:04 | 51.13884 | -0.25774 | 907 ft | 150 kts | 80° |
| 2026-05-07 15:04 | 51.14109 | -0.24170 | 696 ft | 150 kts | 79° |
| 2026-05-07 15:04 | 51.14331 | -0.22546 | 506 ft | 145 kts | 78° |
| 2026-05-07 15:05 | 51.14537 | -0.21038 | 308 ft | 140 kts | 78° |
| 2026-05-07 15:05 | 51.14730 | -0.19602 | 227 ft | 115 kts | 76° |
| 2026-05-07 15:05 | 51.14869 | -0.18645 | 222 ft | 62 kts | 77° |
| 2026-05-07 15:05 | 51.14942 | -0.18139 | 226 ft | 42 kts | 76° |
| 2026-05-07 15:06 | 51.15025 | -0.17863 | 226 ft | 13 kts | 53° |
| 2026-05-07 15:06 | 51.15093 | -0.17765 | 219 ft | 14 kts | 16° |
| 2026-05-07 15:06 | 51.15178 | -0.17771 | 225 ft | 11 kts | 354° |
| 2026-05-07 15:06 | 51.15209 | -0.17776 | 223 ft | 1 kts | 353° |
| 2026-05-07 15:07 | 51.15227 | -0.17774 | 227 ft | 4 kts | 15° |
| 2026-05-07 15:07 | 51.15249 | -0.17732 | 224 ft | 6 kts | 59° |
| 2026-05-07 15:07 | 51.15265 | -0.17668 | 227 ft | 7 kts | 69° |
| 2026-05-07 15:07 | 51.15281 | -0.17587 | 218 ft | 8 kts | 77° |
| 2026-05-07 15:08 | 51.15294 | -0.17494 | 223 ft | 9 kts | 79° |
| 2026-05-07 15:08 | 51.15307 | -0.17420 | 229 ft | 6 kts | 64° |
| 2026-05-07 15:08 | 51.15340 | -0.17388 | 224 ft | 0 kts | 11° |
| 2026-05-07 15:08 | 51.15344 | -0.17387 | 224 ft | 1 kts | 11° |
| 2026-05-07 15:09 | 51.15350 | -0.17386 | 227 ft | 0 kts | 4° |
| 2026-05-07 15:10 | 51.15351 | -0.17386 | 227 ft | 1 kts | 4° |
| 2026-05-07 15:10 | 51.15359 | -0.17385 | 226 ft | 2 kts | 4° |
| 2026-05-07 15:10 | 51.15430 | -0.17401 | 224 ft | 16 kts | 348° |
| 2026-05-07 15:11 | 51.15564 | -0.17447 | 225 ft | 24 kts | 348° |
| 2026-05-07 15:11 | 51.15699 | -0.17494 | 225 ft | 12 kts | 347° |
| 2026-05-07 15:11 | 51.15743 | -0.17618 | 224 ft | 13 kts | 263° |
| 2026-05-07 15:11 | 51.15725 | -0.17760 | 221 ft | 11 kts | 257° |
| 2026-05-07 15:12 | 51.15712 | -0.17852 | 221 ft | 10 kts | 258° |
| 2026-05-07 15:12 | 51.15715 | -0.17991 | 227 ft | 15 kts | 302° |
| 2026-05-07 15:12 | 51.15810 | -0.18067 | 226 ft | 16 kts | 346° |
| 2026-05-07 15:12 | 51.15913 | -0.18104 | 218 ft | 16 kts | 347° |
| 2026-05-07 15:13 | 51.15992 | -0.18133 | 224 ft | 0 kts | 348° |
| 2026-05-07 15:13 | 51.16005 | -0.18135 | 226 ft | 5 kts | 358° |
| 2026-05-07 15:13 | 51.16035 | -0.18097 | 227 ft | 7 kts | 56° |
| 2026-05-07 15:14 | 51.16052 | -0.18034 | 228 ft | 2 kts | 76° |
| 2026-05-07 15:14 | 51.16055 | -0.18019 | 228 ft | 2 kts | 77° |
| 2026-05-07 15:14 | 51.16056 | -0.18008 | 226 ft | 0 kts | 78° |